sensor_id;sensor_type;location;lat;lon;timestamp;noise_LAeq;noise_LA_min;noise_LA_max;noise_LA01;noise_LA95
46749;Laerm;33775;47.992;11.864;2023-10-08T00:00:42;36.71;30.89;39.81;;
46749;Laerm;33775;47.992;11.864;2023-10-08T00:03:20;36.71;29.92;40.33;;
46749;Laerm;33775;47.992;11.864;2023-10-08T00:05:46;36.76;29.92;40.03;;
46749;Laerm;33775;47.992;11.864;2023-10-08T00:08:12;36.73;30.89;39.70;;
46749;Laerm;33775;47.992;11.864;2023-10-08T00:10:39;36.72;30.89;39.92;;
46749;Laerm;33775;47.992;11.864;2023-10-08T00:13:10;36.73;30.89;39.92;;
46749;Laerm;33775;47.992;11.864;2023-10-08T00:15:35;36.75;30.89;40.03;;
46749;Laerm;33775;47.992;11.864;2023-10-08T00:18:01;36.73;30.89;40.03;;
46749;Laerm;33775;47.992;11.864;2023-10-08T00:20:27;36.73;29.92;39.70;;
46749;Laerm;33775;47.992;11.864;2023-10-08T00:23:00;36.74;29.92;39.58;;
46749;Laerm;33775;47.992;11.864;2023-10-08T00:25:27;36.71;29.92;39.70;;
46749;Laerm;33775;47.992;11.864;2023-10-08T00:27:52;36.72;30.89;39.81;;
46749;Laerm;33775;47.992;11.864;2023-10-08T00:30:18;36.77;30.89;39.68;;
46749;Laerm;33775;47.992;11.864;2023-10-08T00:32:43;36.75;30.89;39.81;;
46749;Laerm;33775;47.992;11.864;2023-10-08T00:35:09;36.74;29.92;40.03;;
46749;Laerm;33775;47.992;11.864;2023-10-08T00:37:39;36.77;31.68;40.03;;
46749;Laerm;33775;47.992;11.864;2023-10-08T00:40:05;36.75;29.92;39.58;;
46749;Laerm;33775;47.992;11.864;2023-10-08T00:42:37;36.74;28.67;39.70;;
46749;Laerm;33775;47.992;11.864;2023-10-08T00:45:02;36.73;29.92;39.70;;
46749;Laerm;33775;47.992;11.864;2023-10-08T00:47:30;36.73;30.89;39.92;;
46749;Laerm;33775;47.992;11.864;2023-10-08T00:49:59;36.75;30.89;39.46;;
46749;Laerm;33775;47.992;11.864;2023-10-08T00:52:35;36.73;30.89;40.33;;
46749;Laerm;33775;47.992;11.864;2023-10-08T00:55:10;36.74;29.92;40.03;;
46749;Laerm;33775;47.992;11.864;2023-10-08T00:57:45;36.73;30.89;39.92;;
46749;Laerm;33775;47.992;11.864;2023-10-08T01:00:14;36.77;30.89;39.81;;
46749;Laerm;33775;47.992;11.864;2023-10-08T01:02:47;36.77;31.68;40.03;;
46749;Laerm;33775;47.992;11.864;2023-10-08T01:05:25;36.77;26.91;39.92;;
46749;Laerm;33775;47.992;11.864;2023-10-08T01:08:02;36.75;29.92;39.58;;
46749;Laerm;33775;47.992;11.864;2023-10-08T01:10:31;36.75;30.89;39.81;;
46749;Laerm;33775;47.992;11.864;2023-10-08T01:12:56;36.80;28.67;39.81;;
46749;Laerm;33775;47.992;11.864;2023-10-08T01:15:36;36.76;30.89;39.81;;
46749;Laerm;33775;47.992;11.864;2023-10-08T01:18:02;36.79;30.89;39.81;;
46749;Laerm;33775;47.992;11.864;2023-10-08T01:20:29;36.74;30.54;39.81;;
46749;Laerm;33775;47.992;11.864;2023-10-08T01:23:18;36.76;29.92;39.92;;
46749;Laerm;33775;47.992;11.864;2023-10-08T01:25:46;36.75;28.67;39.70;;
46749;Laerm;33775;47.992;11.864;2023-10-08T01:28:21;36.77;30.89;39.70;;
46749;Laerm;33775;47.992;11.864;2023-10-08T01:30:54;36.76;29.92;39.92;;
46749;Laerm;33775;47.992;11.864;2023-10-08T01:33:20;36.78;30.89;39.70;;
46749;Laerm;33775;47.992;11.864;2023-10-08T01:35:53;36.76;30.89;39.92;;
46749;Laerm;33775;47.992;11.864;2023-10-08T01:38:18;36.75;30.89;39.81;;
46749;Laerm;33775;47.992;11.864;2023-10-08T01:40:49;36.74;29.92;40.13;;
46749;Laerm;33775;47.992;11.864;2023-10-08T01:43:16;36.76;30.89;39.92;;
46749;Laerm;33775;47.992;11.864;2023-10-08T01:45:42;36.73;29.92;39.92;;
46749;Laerm;33775;47.992;11.864;2023-10-08T01:48:08;36.73;29.92;39.70;;
46749;Laerm;33775;47.992;11.864;2023-10-08T01:50:37;36.80;29.92;40.03;;
46749;Laerm;33775;47.992;11.864;2023-10-08T01:53:02;36.72;29.92;39.81;;
46749;Laerm;33775;47.992;11.864;2023-10-08T01:55:30;36.73;30.89;39.46;;
46749;Laerm;33775;47.992;11.864;2023-10-08T01:57:58;36.75;29.92;40.23;;
46749;Laerm;33775;47.992;11.864;2023-10-08T02:00:24;36.75;30.89;39.92;;
46749;Laerm;33775;47.992;11.864;2023-10-08T02:02:51;36.72;28.67;39.81;;
46749;Laerm;33775;47.992;11.864;2023-10-08T02:05:18;36.71;30.89;39.92;;
46749;Laerm;33775;47.992;11.864;2023-10-08T02:07:47;36.76;29.92;39.70;;
46749;Laerm;33775;47.992;11.864;2023-10-08T02:10:12;36.75;29.92;39.81;;
46749;Laerm;33775;47.992;11.864;2023-10-08T02:12:39;36.74;30.89;40.23;;
46749;Laerm;33775;47.992;11.864;2023-10-08T02:15:04;36.74;29.92;40.03;;
46749;Laerm;33775;47.992;11.864;2023-10-08T02:17:31;36.72;29.92;39.57;;
46749;Laerm;33775;47.992;11.864;2023-10-08T02:19:57;36.71;30.89;39.46;;
46749;Laerm;33775;47.992;11.864;2023-10-08T02:22:22;36.73;29.92;39.58;;
46749;Laerm;33775;47.992;11.864;2023-10-08T02:24:47;36.73;28.67;39.92;;
46749;Laerm;33775;47.992;11.864;2023-10-08T02:27:15;36.74;28.67;39.81;;
46749;Laerm;33775;47.992;11.864;2023-10-08T02:29:41;36.70;28.67;39.92;;
46749;Laerm;33775;47.992;11.864;2023-10-08T02:32:07;36.72;30.89;39.70;;
46749;Laerm;33775;47.992;11.864;2023-10-08T02:34:32;36.70;29.92;39.58;;
46749;Laerm;33775;47.992;11.864;2023-10-08T02:36:57;36.71;30.89;39.92;;
46749;Laerm;33775;47.992;11.864;2023-10-08T02:39:23;36.72;30.89;39.81;;
46749;Laerm;33775;47.992;11.864;2023-10-08T02:41:51;36.75;30.89;39.92;;
46749;Laerm;33775;47.992;11.864;2023-10-08T02:44:18;36.74;29.92;39.70;;
46749;Laerm;33775;47.992;11.864;2023-10-08T02:46:43;36.75;30.89;39.92;;
46749;Laerm;33775;47.992;11.864;2023-10-08T02:49:12;36.70;30.89;39.81;;
46749;Laerm;33775;47.992;11.864;2023-10-08T02:51:39;36.69;29.92;39.46;;
46749;Laerm;33775;47.992;11.864;2023-10-08T02:54:05;36.74;26.91;40.03;;
46749;Laerm;33775;47.992;11.864;2023-10-08T02:56:31;36.74;29.92;40.03;;
46749;Laerm;33775;47.992;11.864;2023-10-08T02:58:57;36.73;31.68;39.70;;
46749;Laerm;33775;47.992;11.864;2023-10-08T03:01:22;36.76;31.68;39.58;;
46749;Laerm;33775;47.992;11.864;2023-10-08T03:03:47;36.75;31.68;39.58;;
46749;Laerm;33775;47.992;11.864;2023-10-08T03:06:13;36.75;31.68;39.81;;
46749;Laerm;33775;47.992;11.864;2023-10-08T03:08:39;36.77;30.89;40.23;;
46749;Laerm;33775;47.992;11.864;2023-10-08T03:11:08;36.74;28.67;39.92;;
46749;Laerm;33775;47.992;11.864;2023-10-08T03:13:41;36.73;30.89;40.13;;
46749;Laerm;33775;47.992;11.864;2023-10-08T03:16:06;36.72;29.92;40.33;;
46749;Laerm;33775;47.992;11.864;2023-10-08T03:18:38;36.74;30.89;39.70;;
46749;Laerm;33775;47.992;11.864;2023-10-08T03:21:07;36.77;29.92;39.92;;
46749;Laerm;33775;47.992;11.864;2023-10-08T03:23:48;36.79;30.89;39.99;;
46749;Laerm;33775;47.992;11.864;2023-10-08T03:26:15;36.79;31.33;39.92;;
46749;Laerm;33775;47.992;11.864;2023-10-08T03:29:02;36.77;29.92;40.03;;
46749;Laerm;33775;47.992;11.864;2023-10-08T03:31:32;36.78;30.89;39.70;;
46749;Laerm;33775;47.992;11.864;2023-10-08T03:34:17;36.77;30.89;39.81;;
46749;Laerm;33775;47.992;11.864;2023-10-08T03:36:52;36.78;30.89;40.13;;
46749;Laerm;33775;47.992;11.864;2023-10-08T03:39:24;36.79;28.67;39.81;;
46749;Laerm;33775;47.992;11.864;2023-10-08T03:42:06;36.81;28.67;40.03;;
46749;Laerm;33775;47.992;11.864;2023-10-08T03:44:33;36.78;30.89;39.92;;
46749;Laerm;33775;47.992;11.864;2023-10-08T03:47:02;36.80;30.89;39.92;;
46749;Laerm;33775;47.992;11.864;2023-10-08T03:49:35;36.80;28.67;39.70;;
46749;Laerm;33775;47.992;11.864;2023-10-08T03:52:02;36.82;30.89;39.81;;
46749;Laerm;33775;47.992;11.864;2023-10-08T03:54:29;36.80;30.89;39.92;;
46749;Laerm;33775;47.992;11.864;2023-10-08T03:57:00;36.81;26.91;39.81;;
46749;Laerm;33775;47.992;11.864;2023-10-08T03:59:26;36.78;29.92;39.70;;
46749;Laerm;33775;47.992;11.864;2023-10-08T04:01:54;36.81;29.92;39.92;;
46749;Laerm;33775;47.992;11.864;2023-10-08T04:04:22;36.82;29.92;40.03;;
46749;Laerm;33775;47.992;11.864;2023-10-08T04:06:55;36.81;31.68;40.03;;
46749;Laerm;33775;47.992;11.864;2023-10-08T04:09:38;36.84;29.92;39.81;;
46749;Laerm;33775;47.992;11.864;2023-10-08T04:12:04;36.83;29.92;39.70;;
46749;Laerm;33775;47.992;11.864;2023-10-08T04:14:35;36.82;29.92;40.13;;
46749;Laerm;33775;47.992;11.864;2023-10-08T04:17:01;36.86;28.67;39.92;;
46749;Laerm;33775;47.992;11.864;2023-10-08T04:19:26;36.82;30.89;40.33;;
46749;Laerm;33775;47.992;11.864;2023-10-08T04:21:54;36.81;29.92;39.81;;
46749;Laerm;33775;47.992;11.864;2023-10-08T04:24:20;36.83;29.92;39.92;;
46749;Laerm;33775;47.992;11.864;2023-10-08T04:26:52;36.83;29.92;39.70;;
46749;Laerm;33775;47.992;11.864;2023-10-08T04:29:21;36.84;30.89;40.03;;
46749;Laerm;33775;47.992;11.864;2023-10-08T04:31:47;36.84;30.89;39.70;;
46749;Laerm;33775;47.992;11.864;2023-10-08T04:34:19;36.86;30.89;40.03;;
46749;Laerm;33775;47.992;11.864;2023-10-08T04:36:47;36.85;31.68;40.23;;
46749;Laerm;33775;47.992;11.864;2023-10-08T04:39:22;36.82;31.68;39.70;;
46749;Laerm;33775;47.992;11.864;2023-10-08T04:41:57;36.84;31.68;40.13;;
46749;Laerm;33775;47.992;11.864;2023-10-08T04:44:25;36.87;29.92;40.23;;
46749;Laerm;33775;47.992;11.864;2023-10-08T04:46:51;36.85;30.89;40.03;;
46749;Laerm;33775;47.992;11.864;2023-10-08T04:49:19;36.84;29.92;40.33;;
46749;Laerm;33775;47.992;11.864;2023-10-08T04:52:01;36.85;31.33;39.92;;
46749;Laerm;33775;47.992;11.864;2023-10-08T04:54:40;36.87;30.89;40.13;;
46749;Laerm;33775;47.992;11.864;2023-10-08T04:57:06;36.84;30.89;39.81;;
46749;Laerm;33775;47.992;11.864;2023-10-08T04:59:31;36.86;31.68;39.58;;
46749;Laerm;33775;47.992;11.864;2023-10-08T05:02:00;36.88;30.89;40.23;;
46749;Laerm;33775;47.992;11.864;2023-10-08T05:04:48;36.84;28.67;40.03;;
46749;Laerm;33775;47.992;11.864;2023-10-08T05:07:17;36.84;31.68;40.43;;
46749;Laerm;33775;47.992;11.864;2023-10-08T05:09:46;36.86;30.89;39.92;;
46749;Laerm;33775;47.992;11.864;2023-10-08T05:12:17;36.85;30.89;40.23;;
46749;Laerm;33775;47.992;11.864;2023-10-08T05:14:58;36.87;29.92;39.81;;
46749;Laerm;33775;47.992;11.864;2023-10-08T05:17:38;36.87;32.35;40.03;;
46749;Laerm;33775;47.992;11.864;2023-10-08T05:20:19;36.88;30.89;39.70;;
46749;Laerm;33775;47.992;11.864;2023-10-08T05:23:13;36.87;31.68;39.92;;
46749;Laerm;33775;47.992;11.864;2023-10-08T05:26:02;36.88;29.92;39.70;;
46749;Laerm;33775;47.992;11.864;2023-10-08T05:28:45;36.89;30.89;39.81;;
46749;Laerm;33775;47.992;11.864;2023-10-08T05:31:28;36.89;31.68;39.92;;
46749;Laerm;33775;47.992;11.864;2023-10-08T05:34:18;36.88;29.92;39.81;;
46749;Laerm;33775;47.992;11.864;2023-10-08T05:36:48;36.86;29.92;39.81;;
46749;Laerm;33775;47.992;11.864;2023-10-08T05:39:36;36.89;30.89;40.03;;
46749;Laerm;33775;47.992;11.864;2023-10-08T05:42:03;36.88;29.92;40.03;;
46749;Laerm;33775;47.992;11.864;2023-10-08T05:44:47;36.86;31.68;40.03;;
46749;Laerm;33775;47.992;11.864;2023-10-08T05:47:31;36.91;30.89;39.92;;
46749;Laerm;33775;47.992;11.864;2023-10-08T05:49:56;36.90;30.89;40.23;;
46749;Laerm;33775;47.992;11.864;2023-10-08T05:52:56;36.91;30.89;40.13;;
46749;Laerm;33775;47.992;11.864;2023-10-08T05:55:22;36.88;29.92;39.70;;
46749;Laerm;33775;47.992;11.864;2023-10-08T05:57:53;36.91;30.89;40.23;;
46749;Laerm;33775;47.992;11.864;2023-10-08T06:00:38;36.89;29.92;40.33;;
46749;Laerm;33775;47.992;11.864;2023-10-08T06:03:15;36.93;29.92;39.92;;
46749;Laerm;33775;47.992;11.864;2023-10-08T06:06:02;36.91;29.92;40.13;;
46749;Laerm;33775;47.992;11.864;2023-10-08T06:08:47;36.91;26.91;40.03;;
46749;Laerm;33775;47.992;11.864;2023-10-08T06:11:35;36.89;29.92;40.03;;
46749;Laerm;33775;47.992;11.864;2023-10-08T06:14:09;36.91;31.68;39.46;;
46749;Laerm;33775;47.992;11.864;2023-10-08T06:16:53;36.91;30.89;39.81;;
46749;Laerm;33775;47.992;11.864;2023-10-08T06:19:38;36.91;29.92;40.03;;
46749;Laerm;33775;47.992;11.864;2023-10-08T06:22:03;36.92;30.89;40.03;;
46749;Laerm;33775;47.992;11.864;2023-10-08T06:24:29;36.89;30.89;39.70;;
46749;Laerm;33775;47.992;11.864;2023-10-08T06:26:54;36.93;32.35;40.53;;
46749;Laerm;33775;47.992;11.864;2023-10-08T06:29:20;36.91;31.68;39.81;;
46749;Laerm;33775;47.992;11.864;2023-10-08T06:31:55;36.90;28.67;40.03;;
46749;Laerm;33775;47.992;11.864;2023-10-08T06:34:21;36.89;29.92;40.33;;
46749;Laerm;33775;47.992;11.864;2023-10-08T06:36:48;36.89;31.68;40.03;;
46749;Laerm;33775;47.992;11.864;2023-10-08T06:39:13;36.93;31.68;39.81;;
46749;Laerm;33775;47.992;11.864;2023-10-08T06:41:44;36.89;28.67;40.03;;
46749;Laerm;33775;47.992;11.864;2023-10-08T06:44:11;36.90;31.68;40.03;;
46749;Laerm;33775;47.992;11.864;2023-10-08T06:46:39;36.90;28.67;40.18;;
46749;Laerm;33775;47.992;11.864;2023-10-08T06:49:06;36.88;30.54;39.70;;
46749;Laerm;33775;47.992;11.864;2023-10-08T06:51:36;36.89;30.89;40.03;;
46749;Laerm;33775;47.992;11.864;2023-10-08T06:54:01;36.90;31.68;39.92;;
46749;Laerm;33775;47.992;11.864;2023-10-08T06:56:28;36.90;29.92;40.03;;
46749;Laerm;33775;47.992;11.864;2023-10-08T06:58:53;36.88;28.67;39.70;;
46749;Laerm;33775;47.992;11.864;2023-10-08T07:01:19;36.86;30.89;39.70;;
46749;Laerm;33775;47.992;11.864;2023-10-08T07:03:49;36.90;30.89;40.13;;
46749;Laerm;33775;47.992;11.864;2023-10-08T07:06:15;36.89;29.92;39.92;;
46749;Laerm;33775;47.992;11.864;2023-10-08T07:09:02;36.88;29.92;39.81;;
46749;Laerm;33775;47.992;11.864;2023-10-08T07:11:31;36.89;29.92;39.81;;
46749;Laerm;33775;47.992;11.864;2023-10-08T07:14:00;36.86;29.92;40.13;;
46749;Laerm;33775;47.992;11.864;2023-10-08T07:16:25;36.88;30.89;40.03;;
46749;Laerm;33775;47.992;11.864;2023-10-08T07:18:53;36.91;31.33;40.23;;
46749;Laerm;33775;47.992;11.864;2023-10-08T07:21:20;36.87;30.89;39.81;;
46749;Laerm;33775;47.992;11.864;2023-10-08T07:23:53;36.90;30.89;40.13;;
46749;Laerm;33775;47.992;11.864;2023-10-08T07:26:21;36.88;29.92;39.92;;
46749;Laerm;33775;47.992;11.864;2023-10-08T07:28:49;36.91;30.89;40.03;;
46749;Laerm;33775;47.992;11.864;2023-10-08T07:31:17;36.91;30.89;40.03;;
46749;Laerm;33775;47.992;11.864;2023-10-08T07:33:46;36.92;30.89;40.33;;
46749;Laerm;33775;47.992;11.864;2023-10-08T07:36:11;36.89;30.89;39.99;;
46749;Laerm;33775;47.992;11.864;2023-10-08T07:38:37;36.91;30.89;39.92;;
46749;Laerm;33775;47.992;11.864;2023-10-08T07:41:03;36.92;31.68;39.81;;
46749;Laerm;33775;47.992;11.864;2023-10-08T07:43:30;36.91;32.35;40.03;;
46749;Laerm;33775;47.992;11.864;2023-10-08T07:45:57;36.92;31.68;40.03;;
46749;Laerm;33775;47.992;11.864;2023-10-08T07:48:22;36.89;31.68;40.23;;
46749;Laerm;33775;47.992;11.864;2023-10-08T07:50:54;36.92;29.92;40.03;;
46749;Laerm;33775;47.992;11.864;2023-10-08T07:53:20;36.90;31.68;39.92;;
46749;Laerm;33775;47.992;11.864;2023-10-08T07:55:45;36.94;31.68;40.33;;
46749;Laerm;33775;47.992;11.864;2023-10-08T07:58:12;36.95;31.68;40.03;;
46749;Laerm;33775;47.992;11.864;2023-10-08T08:00:39;36.94;29.92;39.92;;
46749;Laerm;33775;47.992;11.864;2023-10-08T08:03:06;36.96;29.92;40.03;;
46749;Laerm;33775;47.992;11.864;2023-10-08T08:05:31;36.93;31.68;39.78;;
46749;Laerm;33775;47.992;11.864;2023-10-08T08:07:56;36.96;31.68;39.81;;
46749;Laerm;33775;47.992;11.864;2023-10-08T08:10:25;36.95;31.68;39.92;;
46749;Laerm;33775;47.992;11.864;2023-10-08T08:12:50;36.95;30.89;40.03;;
46749;Laerm;33775;47.992;11.864;2023-10-08T08:15:21;36.95;30.89;40.33;;
46749;Laerm;33775;47.992;11.864;2023-10-08T08:17:48;36.96;31.68;40.23;;
46749;Laerm;33775;47.992;11.864;2023-10-08T08:20:13;36.97;31.68;39.81;;
46749;Laerm;33775;47.992;11.864;2023-10-08T08:22:47;36.99;31.68;40.13;;
46749;Laerm;33775;47.992;11.864;2023-10-08T08:25:17;36.97;30.89;40.03;;
46749;Laerm;33775;47.992;11.864;2023-10-08T08:27:58;37.00;32.35;39.70;;
46749;Laerm;33775;47.992;11.864;2023-10-08T08:30:24;36.98;32.35;40.03;;
46749;Laerm;33775;47.992;11.864;2023-10-08T08:32:51;37.01;31.33;39.81;;
46749;Laerm;33775;47.992;11.864;2023-10-08T08:35:16;36.97;32.35;39.81;;
46749;Laerm;33775;47.992;11.864;2023-10-08T08:37:42;36.98;29.92;40.03;;
46749;Laerm;33775;47.992;11.864;2023-10-08T08:40:08;36.99;29.92;39.92;;
46749;Laerm;33775;47.992;11.864;2023-10-08T08:42:42;36.99;29.92;39.92;;
46749;Laerm;33775;47.992;11.864;2023-10-08T08:45:09;36.97;31.33;40.33;;
46749;Laerm;33775;47.992;11.864;2023-10-08T08:47:36;37.02;30.89;40.33;;
46749;Laerm;33775;47.992;11.864;2023-10-08T08:50:02;36.99;30.89;40.23;;
46749;Laerm;33775;47.992;11.864;2023-10-08T08:52:34;36.98;31.68;39.99;;
46749;Laerm;33775;47.992;11.864;2023-10-08T08:54:59;36.99;30.89;40.03;;
46749;Laerm;33775;47.992;11.864;2023-10-08T08:57:28;37.01;32.35;40.23;;
46749;Laerm;33775;47.992;11.864;2023-10-08T08:59:53;37.00;31.68;39.81;;
46749;Laerm;33775;47.992;11.864;2023-10-08T09:02:20;37.00;31.68;40.03;;
46749;Laerm;33775;47.992;11.864;2023-10-08T09:04:47;36.99;32.35;40.03;;
46749;Laerm;33775;47.992;11.864;2023-10-08T09:07:13;36.99;32.35;40.03;;
46749;Laerm;33775;47.992;11.864;2023-10-08T09:09:38;36.99;30.89;39.92;;
46749;Laerm;33775;47.992;11.864;2023-10-08T09:12:05;37.00;30.89;40.13;;
46749;Laerm;33775;47.992;11.864;2023-10-08T09:14:30;37.02;31.68;40.43;;
46749;Laerm;33775;47.992;11.864;2023-10-08T09:16:57;37.02;30.89;39.92;;
46749;Laerm;33775;47.992;11.864;2023-10-08T09:19:23;37.02;31.68;40.03;;
46749;Laerm;33775;47.992;11.864;2023-10-08T09:24:44;37.04;29.92;40.23;;
46749;Laerm;33775;47.992;11.864;2023-10-08T09:27:14;37.05;31.68;40.13;;
46749;Laerm;33775;47.992;11.864;2023-10-08T09:29:39;37.02;29.92;40.13;;
46749;Laerm;33775;47.992;11.864;2023-10-08T09:32:05;37.04;31.68;40.43;;
46749;Laerm;33775;47.992;11.864;2023-10-08T09:34:31;37.03;31.68;40.03;;
46749;Laerm;33775;47.992;11.864;2023-10-08T09:36:57;37.04;31.68;39.92;;
46749;Laerm;33775;47.992;11.864;2023-10-08T09:39:25;37.04;26.91;40.53;;
46749;Laerm;33775;47.992;11.864;2023-10-08T09:41:54;37.04;30.89;39.81;;
46749;Laerm;33775;47.992;11.864;2023-10-08T09:44:19;37.05;29.92;39.70;;
46749;Laerm;33775;47.992;11.864;2023-10-08T09:46:48;37.03;32.35;40.23;;
46749;Laerm;33775;47.992;11.864;2023-10-08T09:49:15;37.08;30.89;39.92;;
46749;Laerm;33775;47.992;11.864;2023-10-08T09:51:41;37.08;30.89;40.13;;
46749;Laerm;33775;47.992;11.864;2023-10-08T09:54:11;37.09;29.92;40.03;;
46749;Laerm;33775;47.992;11.864;2023-10-08T09:56:40;37.10;32.35;40.03;;
46749;Laerm;33775;47.992;11.864;2023-10-08T09:59:06;37.10;32.35;40.13;;
46749;Laerm;33775;47.992;11.864;2023-10-08T10:01:34;37.12;28.67;39.92;;
46749;Laerm;33775;47.992;11.864;2023-10-08T10:03:59;37.10;32.35;40.43;;
46749;Laerm;33775;47.992;11.864;2023-10-08T10:06:25;37.07;31.68;39.92;;
46749;Laerm;33775;47.992;11.864;2023-10-08T10:08:51;37.11;30.89;40.03;;
46749;Laerm;33775;47.992;11.864;2023-10-08T10:11:17;37.08;30.89;40.13;;
46749;Laerm;33775;47.992;11.864;2023-10-08T10:13:43;37.11;30.89;40.43;;
46749;Laerm;33775;47.992;11.864;2023-10-08T10:16:13;37.13;32.35;40.13;;
46749;Laerm;33775;47.992;11.864;2023-10-08T10:18:38;37.14;31.68;40.13;;
46749;Laerm;33775;47.992;11.864;2023-10-08T10:23:38;37.16;31.68;40.33;;
46749;Laerm;33775;47.992;11.864;2023-10-08T10:26:05;37.15;32.35;39.92;;
46749;Laerm;33775;47.992;11.864;2023-10-08T10:29:01;37.13;30.89;40.23;;
46749;Laerm;33775;47.992;11.864;2023-10-08T10:31:39;37.13;30.89;39.92;;
46749;Laerm;33775;47.992;11.864;2023-10-08T10:34:08;37.12;30.89;40.43;;
46749;Laerm;33775;47.992;11.864;2023-10-08T10:36:37;37.14;30.89;39.99;;
46749;Laerm;33775;47.992;11.864;2023-10-08T10:39:02;37.16;32.35;40.13;;
46749;Laerm;33775;47.992;11.864;2023-10-08T10:41:44;37.16;30.89;40.13;;
46749;Laerm;33775;47.992;11.864;2023-10-08T10:44:10;37.15;30.89;39.81;;
46749;Laerm;33775;47.992;11.864;2023-10-08T10:46:35;37.14;31.68;40.33;;
46749;Laerm;33775;47.992;11.864;2023-10-08T10:49:06;37.15;31.68;40.33;;
46749;Laerm;33775;47.992;11.864;2023-10-08T10:51:43;37.12;32.35;39.92;;
46749;Laerm;33775;47.992;11.864;2023-10-08T10:54:08;37.16;30.89;40.13;;
46749;Laerm;33775;47.992;11.864;2023-10-08T10:56:35;37.14;30.89;40.23;;
46749;Laerm;33775;47.992;11.864;2023-10-08T10:59:10;37.15;31.68;40.23;;
46749;Laerm;33775;47.992;11.864;2023-10-08T11:01:47;37.15;30.89;40.03;;
46749;Laerm;33775;47.992;11.864;2023-10-08T11:04:17;37.13;31.68;39.89;;
46749;Laerm;33775;47.992;11.864;2023-10-08T11:06:44;37.14;30.89;39.81;;
46749;Laerm;33775;47.992;11.864;2023-10-08T11:09:12;37.14;30.89;40.13;;
46749;Laerm;33775;47.992;11.864;2023-10-08T11:11:44;37.17;30.89;40.03;;
46749;Laerm;33775;47.992;11.864;2023-10-08T11:14:13;37.15;32.35;40.13;;
46749;Laerm;33775;47.992;11.864;2023-10-08T11:16:44;37.14;31.68;39.92;;
46749;Laerm;33775;47.992;11.864;2023-10-08T11:19:09;37.13;30.89;40.13;;
46749;Laerm;33775;47.992;11.864;2023-10-08T11:21:50;37.19;32.35;40.43;;
46749;Laerm;33775;47.992;11.864;2023-10-08T11:24:26;37.14;31.68;40.33;;
46749;Laerm;33775;47.992;11.864;2023-10-08T11:26:52;37.18;32.35;40.13;;
46749;Laerm;33775;47.992;11.864;2023-10-08T11:29:35;37.15;30.89;40.13;;
46749;Laerm;33775;47.992;11.864;2023-10-08T11:32:03;37.18;32.93;40.03;;
46749;Laerm;33775;47.992;11.864;2023-10-08T11:34:32;37.18;31.68;40.03;;
46749;Laerm;33775;47.992;11.864;2023-10-08T11:37:03;37.17;30.89;39.81;;
46749;Laerm;33775;47.992;11.864;2023-10-08T11:39:38;37.19;31.68;40.43;;
46749;Laerm;33775;47.992;11.864;2023-10-08T11:42:10;37.18;32.35;40.23;;
46749;Laerm;33775;47.992;11.864;2023-10-08T11:44:55;37.18;31.68;39.92;;
46749;Laerm;33775;47.992;11.864;2023-10-08T11:47:24;37.21;31.68;40.62;;
46749;Laerm;33775;47.992;11.864;2023-10-08T11:49:50;37.19;31.68;39.92;;
46749;Laerm;33775;47.992;11.864;2023-10-08T11:52:19;37.19;29.92;39.81;;
46749;Laerm;33775;47.992;11.864;2023-10-08T11:54:48;37.19;32.35;40.23;;
46749;Laerm;33775;47.992;11.864;2023-10-08T11:57:14;37.19;31.68;39.92;;
46749;Laerm;33775;47.992;11.864;2023-10-08T11:59:39;37.18;32.35;40.33;;
46749;Laerm;33775;47.992;11.864;2023-10-08T12:02:05;37.16;30.54;40.03;;
46749;Laerm;33775;47.992;11.864;2023-10-08T12:04:31;37.20;32.35;40.03;;
46749;Laerm;33775;47.992;11.864;2023-10-08T12:06:56;37.23;32.35;40.13;;
46749;Laerm;33775;47.992;11.864;2023-10-08T12:09:21;37.18;31.68;40.13;;
46749;Laerm;33775;47.992;11.864;2023-10-08T12:11:47;37.18;31.68;39.92;;
46749;Laerm;33775;47.992;11.864;2023-10-08T12:14:12;37.19;31.68;40.23;;
46749;Laerm;33775;47.992;11.864;2023-10-08T12:16:39;37.20;32.35;39.92;;
46749;Laerm;33775;47.992;11.864;2023-10-08T12:19:06;37.19;32.35;40.13;;
46749;Laerm;33775;47.992;11.864;2023-10-08T12:21:40;37.21;32.35;40.13;;
46749;Laerm;33775;47.992;11.864;2023-10-08T12:24:06;37.20;32.35;40.13;;
46749;Laerm;33775;47.992;11.864;2023-10-08T12:26:33;37.23;31.68;40.23;;
46749;Laerm;33775;47.992;11.864;2023-10-08T12:28:58;37.21;32.35;40.13;;
46749;Laerm;33775;47.992;11.864;2023-10-08T12:31:25;37.18;30.89;40.03;;
46749;Laerm;33775;47.992;11.864;2023-10-08T12:33:54;37.20;31.68;39.92;;
46749;Laerm;33775;47.992;11.864;2023-10-08T12:36:25;37.20;32.93;40.53;;
46749;Laerm;33775;47.992;11.864;2023-10-08T12:38:51;37.16;32.93;39.92;;
46749;Laerm;33775;47.992;11.864;2023-10-08T12:41:22;37.17;31.68;40.13;;
46749;Laerm;33775;47.992;11.864;2023-10-08T12:43:50;37.16;32.35;40.03;;
46749;Laerm;33775;47.992;11.864;2023-10-08T12:46:17;37.18;31.68;40.03;;
46749;Laerm;33775;47.992;11.864;2023-10-08T12:48:43;37.14;32.35;39.92;;
46749;Laerm;33775;47.992;11.864;2023-10-08T12:51:09;37.18;31.68;40.43;;
46749;Laerm;33775;47.992;11.864;2023-10-08T12:53:36;37.13;32.35;39.70;;
46749;Laerm;33775;47.992;11.864;2023-10-08T12:56:08;37.14;32.93;39.92;;
46749;Laerm;33775;47.992;11.864;2023-10-08T12:58:40;37.16;32.93;40.13;;
46749;Laerm;33775;47.992;11.864;2023-10-08T13:01:16;37.16;32.35;39.81;;
46749;Laerm;33775;47.992;11.864;2023-10-08T13:03:47;37.16;31.68;40.13;;
46749;Laerm;33775;47.992;11.864;2023-10-08T13:06:21;37.13;30.89;40.13;;
46749;Laerm;33775;47.992;11.864;2023-10-08T13:08:57;37.16;31.68;40.03;;
46749;Laerm;33775;47.992;11.864;2023-10-08T13:11:23;37.18;31.68;40.23;;
46749;Laerm;33775;47.992;11.864;2023-10-08T13:13:52;37.16;31.68;40.53;;
46749;Laerm;33775;47.992;11.864;2023-10-08T13:16:18;37.15;31.68;39.92;;
46749;Laerm;33775;47.992;11.864;2023-10-08T13:18:46;37.15;29.92;40.53;;
46749;Laerm;33775;47.992;11.864;2023-10-08T13:21:11;37.17;30.89;40.13;;
46749;Laerm;33775;47.992;11.864;2023-10-08T13:23:36;37.13;29.92;39.92;;
46749;Laerm;33775;47.992;11.864;2023-10-08T13:26:02;37.13;32.35;40.03;;
46749;Laerm;33775;47.992;11.864;2023-10-08T13:28:32;37.14;29.92;40.03;;
46749;Laerm;33775;47.992;11.864;2023-10-08T13:30:59;37.17;32.35;39.92;;
46749;Laerm;33775;47.992;11.864;2023-10-08T13:33:24;37.14;32.00;40.53;;
46749;Laerm;33775;47.992;11.864;2023-10-08T13:35:49;37.17;31.68;39.92;;
46749;Laerm;33775;47.992;11.864;2023-10-08T13:38:18;37.15;32.35;40.13;;
46749;Laerm;33775;47.992;11.864;2023-10-08T13:40:46;37.17;32.35;40.23;;
46749;Laerm;33775;47.992;11.864;2023-10-08T13:43:27;37.15;32.35;40.03;;
46749;Laerm;33775;47.992;11.864;2023-10-08T13:45:58;37.15;31.68;40.03;;
46749;Laerm;33775;47.992;11.864;2023-10-08T13:48:23;37.17;31.68;40.33;;
46749;Laerm;33775;47.992;11.864;2023-10-08T13:50:49;37.18;30.89;40.03;;